createdAt,value
2023-04-16T00:00:58.522Z,7.43
2023-04-16T00:03:25.088Z,7.42
2023-04-16T00:05:51.701Z,7.39
2023-04-16T00:08:18.428Z,7.30
2023-04-16T00:10:44.783Z,7.27
2023-04-16T00:13:11.125Z,7.28
2023-04-16T00:15:37.490Z,7.25
2023-04-16T00:18:03.895Z,7.26
2023-04-16T00:20:30.299Z,7.28
2023-04-16T00:22:57.018Z,7.29
2023-04-16T00:25:23.444Z,7.22
2023-04-16T00:27:49.965Z,7.25
2023-04-16T00:30:16.625Z,7.16
2023-04-16T00:32:43.080Z,7.16
2023-04-16T00:35:09.605Z,7.18
2023-04-16T00:37:36.054Z,7.16
2023-04-16T00:40:02.539Z,7.07
2023-04-16T00:42:29.174Z,7.11
2023-04-16T00:44:55.658Z,7.10
2023-04-16T00:47:22.227Z,6.96
2023-04-16T00:49:49.067Z,6.91
2023-04-16T00:52:15.482Z,6.98
2023-04-16T00:54:41.967Z,6.80
2023-04-16T00:57:09.041Z,6.84
2023-04-16T00:59:35.597Z,6.94
2023-04-16T01:02:02.160Z,6.90
2023-04-16T01:04:30.897Z,6.90
2023-04-16T01:06:57.502Z,6.89
2023-04-16T01:09:23.896Z,6.81
2023-04-16T01:11:50.287Z,6.75
2023-04-16T01:14:16.720Z,6.71
2023-04-16T01:16:43.083Z,6.76
2023-04-16T01:19:09.661Z,6.73
2023-04-16T01:21:36.223Z,6.73
2023-04-16T01:24:04.607Z,6.70
2023-04-16T01:26:31.451Z,6.78
2023-04-16T01:28:57.936Z,6.91
2023-04-16T01:31:24.467Z,6.89
2023-04-16T01:33:50.871Z,6.77
2023-04-16T01:36:17.536Z,6.64
2023-04-16T01:38:44.050Z,6.59
2023-04-16T01:41:10.428Z,6.63
2023-04-16T01:43:38.974Z,6.74
2023-04-16T01:46:13.947Z,6.65
2023-04-16T01:48:40.453Z,6.84
2023-04-16T01:51:06.842Z,6.55
2023-04-16T01:53:34.696Z,6.52
2023-04-16T01:56:02.167Z,6.49
2023-04-16T01:58:30.219Z,6.47
2023-04-16T02:00:56.734Z,6.45
2023-04-16T02:03:24.885Z,6.30
2023-04-16T02:05:51.844Z,6.30
2023-04-16T02:08:18.242Z,6.24
2023-04-16T02:10:49.344Z,6.24
2023-04-16T02:13:16.590Z,6.23
2023-04-16T02:15:50.457Z,6.30
2023-04-16T02:18:17.005Z,6.25
2023-04-16T02:20:45.283Z,6.17
2023-04-16T02:23:12.559Z,6.10
2023-04-16T02:25:43.325Z,6.08
2023-04-16T02:28:14.156Z,6.06
2023-04-16T02:30:41.488Z,6.00
2023-04-16T02:33:10.478Z,6.06
2023-04-16T02:35:38.921Z,5.98
2023-04-16T02:38:06.035Z,5.92
2023-04-16T02:40:32.587Z,5.92
2023-04-16T02:42:59.058Z,5.92
2023-04-16T02:45:25.564Z,5.93
2023-04-16T02:47:52.128Z,6.00
2023-04-16T02:50:18.780Z,5.82
2023-04-16T02:52:45.370Z,5.80
2023-04-16T02:55:11.998Z,5.81
2023-04-16T02:57:38.414Z,5.77
2023-04-16T03:00:05.411Z,5.80
2023-04-16T03:02:31.967Z,5.90
2023-04-16T03:04:58.498Z,5.83
2023-04-16T03:07:24.978Z,5.78
2023-04-16T03:09:51.803Z,5.73
2023-04-16T03:12:18.194Z,5.70
2023-04-16T03:14:44.540Z,5.64
2023-04-16T03:17:10.975Z,5.72
2023-04-16T03:19:37.366Z,5.71
2023-04-16T03:22:03.736Z,5.81
2023-04-16T03:24:30.225Z,5.61
2023-04-16T03:26:57.884Z,5.64
2023-04-16T03:29:24.529Z,5.64
2023-04-16T03:31:50.883Z,5.60
2023-04-16T03:34:17.292Z,5.51
2023-04-16T03:36:43.632Z,5.39
2023-04-16T03:39:10.156Z,5.40
2023-04-16T03:41:37.037Z,5.42
2023-04-16T03:44:03.448Z,5.41
2023-04-16T03:46:29.851Z,5.27
2023-04-16T03:48:56.306Z,5.23
2023-04-16T03:51:22.875Z,5.23
2023-04-16T03:53:49.277Z,5.28
2023-04-16T03:56:15.660Z,5.21
2023-04-16T03:58:42.058Z,5.20
2023-04-16T04:01:08.518Z,5.15
2023-04-16T04:03:35.091Z,5.09
2023-04-16T04:06:01.679Z,5.11
2023-04-16T04:08:28.097Z,4.97
2023-04-16T04:10:54.459Z,5.06
2023-04-16T04:13:21.014Z,5.03
2023-04-16T04:15:47.501Z,5.02
2023-04-16T04:18:14.075Z,5.16
2023-04-16T04:20:41.198Z,5.14
2023-04-16T04:23:07.803Z,5.09
2023-04-16T04:25:34.175Z,5.04
2023-04-16T04:28:00.613Z,4.94
2023-04-16T04:30:26.975Z,4.91
2023-04-16T04:32:53.349Z,4.89
2023-04-16T04:35:19.819Z,5.00
2023-04-16T04:37:46.492Z,5.32
2023-04-16T04:40:13.095Z,5.57
2023-04-16T04:42:39.591Z,5.32
2023-04-16T04:45:06.555Z,5.14
2023-04-16T04:47:33.254Z,5.15
2023-04-16T04:49:59.918Z,5.18
2023-04-16T04:52:26.278Z,5.17
2023-04-16T04:54:52.772Z,5.16
2023-04-16T04:57:19.184Z,5.13
2023-04-16T04:59:45.654Z,5.06
2023-04-16T05:02:12.416Z,5.04
2023-04-16T05:04:38.844Z,5.06
2023-04-16T05:07:06.507Z,4.98
2023-04-16T05:09:33.009Z,5.02
2023-04-16T05:11:59.461Z,5.08
2023-04-16T05:14:25.817Z,5.04
2023-04-16T05:16:52.227Z,5.14
2023-04-16T05:19:18.615Z,5.13
2023-04-16T05:21:45.068Z,5.13
2023-04-16T05:24:13.637Z,5.08
2023-04-16T05:26:41.254Z,5.02
2023-04-16T05:29:07.875Z,5.01
2023-04-16T05:31:34.342Z,5.01
2023-04-16T05:34:00.682Z,5.00
2023-04-16T05:36:27.189Z,4.99
2023-04-16T05:38:53.695Z,5.04
2023-04-16T05:41:20.383Z,5.07
2023-04-16T05:43:46.760Z,5.18
2023-04-16T05:46:13.177Z,5.12
2023-04-16T05:48:39.589Z,4.96
2023-04-16T05:51:06.060Z,5.06
2023-04-16T05:53:32.559Z,5.02
2023-04-16T05:55:59.214Z,5.05
2023-04-16T05:58:25.688Z,5.11
2023-04-16T06:00:52.394Z,5.09
2023-04-16T06:03:18.841Z,5.08
2023-04-16T06:05:45.492Z,5.18
2023-04-16T06:08:12.010Z,5.29
2023-04-16T06:10:38.412Z,5.28
2023-04-16T06:13:04.808Z,5.32
2023-04-16T06:15:31.201Z,5.29
2023-04-16T06:18:00.211Z,5.29
2023-04-16T06:20:27.173Z,5.44
2023-04-16T06:22:53.585Z,5.44
2023-04-16T06:25:20.085Z,5.46
2023-04-16T06:27:46.464Z,5.47
2023-04-16T06:30:14.383Z,5.53
2023-04-16T06:32:41.878Z,5.64
2023-04-16T06:35:08.905Z,5.76
2023-04-16T06:37:35.639Z,5.95
2023-04-16T06:40:02.164Z,6.12
2023-04-16T06:42:28.655Z,6.14
2023-04-16T06:44:55.325Z,6.18
2023-04-16T06:47:21.814Z,6.36
2023-04-16T06:49:48.521Z,6.42
2023-04-16T06:52:14.990Z,6.52
2023-04-16T06:54:41.444Z,6.59
2023-04-16T06:57:08.133Z,6.60
2023-04-16T06:59:34.495Z,6.67
2023-04-16T07:02:01.286Z,6.75
2023-04-16T07:04:28.950Z,6.77
2023-04-16T07:06:55.344Z,6.98
2023-04-16T07:09:21.702Z,7.03
2023-04-16T07:11:48.422Z,6.93
2023-04-16T07:14:14.848Z,6.93
2023-04-16T07:16:41.294Z,7.09
2023-04-16T07:19:08.149Z,7.39
2023-04-16T07:21:34.677Z,7.44
2023-04-16T07:24:01.117Z,7.33
2023-04-16T07:26:27.501Z,7.36
2023-04-16T07:28:53.856Z,7.54
2023-04-16T07:31:20.652Z,7.60
2023-04-16T07:33:47.115Z,7.88
2023-04-16T07:36:14.037Z,7.98
2023-04-16T07:38:40.708Z,8.05
2023-04-16T07:41:07.138Z,8.14
2023-04-16T07:43:33.795Z,8.50
2023-04-16T07:46:00.427Z,8.40
2023-04-16T07:48:29.841Z,8.58
2023-04-16T07:50:56.297Z,8.32
2023-04-16T07:53:22.762Z,8.50
2023-04-16T07:55:49.303Z,8.28
2023-04-16T07:58:15.770Z,8.27
2023-04-16T08:00:42.426Z,8.29
2023-04-16T08:03:08.943Z,8.26
2023-04-16T08:05:35.690Z,8.40
2023-04-16T08:08:02.255Z,8.26
2023-04-16T08:10:28.793Z,8.45
2023-04-16T08:12:55.324Z,8.51
2023-04-16T08:15:21.742Z,8.52
2023-04-16T08:17:48.143Z,8.47
2023-04-16T08:20:16.359Z,8.58
2023-04-16T08:22:45.990Z,8.71
2023-04-16T08:25:12.370Z,8.70
2023-04-16T08:27:38.856Z,8.81
2023-04-16T08:30:05.920Z,8.85
2023-04-16T08:32:32.703Z,8.97
2023-04-16T08:34:59.480Z,9.02
2023-04-16T08:37:26.326Z,9.00
2023-04-16T08:39:52.683Z,9.04
2023-04-16T08:42:28.605Z,9.07
2023-04-16T08:45:15.496Z,9.23
2023-04-16T08:47:46.269Z,9.27
2023-04-16T08:50:16.033Z,9.32
2023-04-16T08:52:53.537Z,9.41
2023-04-16T08:55:23.761Z,9.64
2023-04-16T08:57:57.544Z,9.65
2023-04-16T09:00:24.588Z,9.66
2023-04-16T09:02:51.835Z,9.73
2023-04-16T09:05:20.578Z,9.86
2023-04-16T09:07:47.849Z,9.88
2023-04-16T09:10:17.445Z,9.88
2023-04-16T09:12:44.521Z,9.89
2023-04-16T09:15:12.510Z,9.86
2023-04-16T09:17:39.986Z,9.95
2023-04-16T09:20:12.479Z,9.94
2023-04-16T09:22:42.282Z,10.10
2023-04-16T09:25:09.676Z,10.08
2023-04-16T09:27:36.615Z,10.14
2023-04-16T09:30:22.660Z,10.23
2023-04-16T09:32:50.584Z,10.27
2023-04-16T09:35:20.649Z,10.29
2023-04-16T09:37:57.794Z,10.25
2023-04-16T09:40:27.120Z,10.32
2023-04-16T09:42:57.254Z,10.42
2023-04-16T09:45:23.690Z,10.51
2023-04-16T09:47:50.043Z,10.57
2023-04-16T09:50:19.025Z,10.56
2023-04-16T09:52:49.467Z,10.57
2023-04-16T09:55:15.982Z,10.79
2023-04-16T09:57:42.419Z,10.69
2023-04-16T10:00:10.267Z,10.88
2023-04-16T10:02:41.546Z,11.02
2023-04-16T10:05:08.595Z,11.03
2023-04-16T10:07:36.732Z,11.16
2023-04-16T10:10:04.234Z,11.10
2023-04-16T10:12:32.640Z,11.12
2023-04-16T10:14:59.352Z,11.09
2023-04-16T10:17:26.431Z,11.31
2023-04-16T10:19:54.564Z,11.31
2023-04-16T10:22:21.022Z,11.23
2023-04-16T10:24:48.787Z,11.37
2023-04-16T10:27:16.590Z,11.42
2023-04-16T10:29:43.931Z,11.37
2023-04-16T10:32:10.692Z,11.44
2023-04-16T10:34:37.199Z,11.60
2023-04-16T10:37:03.858Z,11.47
2023-04-16T10:39:30.322Z,11.64
2023-04-16T10:42:13.213Z,11.64
2023-04-16T10:44:43.397Z,11.35
2023-04-16T10:47:12.950Z,11.37
2023-04-16T10:49:40.447Z,11.61
2023-04-16T10:52:17.106Z,11.44
2023-04-16T10:54:43.608Z,11.31
2023-04-16T10:57:16.071Z,11.43
2023-04-16T10:59:43.875Z,11.58
2023-04-16T11:02:15.896Z,11.59
2023-04-16T11:04:45.270Z,11.50
2023-04-16T11:07:13.799Z,11.66
2023-04-16T11:10:02.195Z,11.70
2023-04-16T11:12:38.451Z,11.80
2023-04-16T11:15:07.344Z,11.73
2023-04-16T11:17:37.627Z,11.65
2023-04-16T11:20:19.462Z,11.83
2023-04-16T11:22:48.020Z,11.88
2023-04-16T11:25:22.823Z,11.96
2023-04-16T11:27:50.339Z,11.97
2023-04-16T11:30:17.070Z,11.96
2023-04-16T11:32:44.029Z,12.00
2023-04-16T11:35:18.615Z,11.97
2023-04-16T11:37:45.892Z,11.79
2023-04-16T11:40:12.912Z,11.96
2023-04-16T11:42:41.444Z,11.96
2023-04-16T11:45:09.963Z,12.17
2023-04-16T11:47:52.033Z,12.15
2023-04-16T11:50:27.741Z,12.16
2023-04-16T11:52:55.438Z,12.35
2023-04-16T11:55:22.222Z,12.33
2023-04-16T11:57:49.331Z,12.44
2023-04-16T12:00:19.008Z,12.57
2023-04-16T12:02:51.898Z,12.55
2023-04-16T12:05:33.700Z,12.56
2023-04-16T12:08:03.182Z,12.52
2023-04-16T12:10:31.146Z,12.54
2023-04-16T12:13:17.258Z,12.47
2023-04-16T12:15:51.458Z,12.50
2023-04-16T12:18:20.161Z,12.74
2023-04-16T12:20:47.457Z,12.69
2023-04-16T12:23:32.133Z,12.75
2023-04-16T12:26:02.170Z,12.87
2023-04-16T12:28:34.016Z,12.84
2023-04-16T12:31:01.489Z,12.86
2023-04-16T12:33:28.103Z,12.81
2023-04-16T12:35:54.865Z,12.69
2023-04-16T12:38:24.053Z,12.87
2023-04-16T12:40:51.496Z,13.00
2023-04-16T12:43:18.258Z,12.98
2023-04-16T12:45:44.849Z,13.04
2023-04-16T12:48:11.552Z,13.06
2023-04-16T12:50:39.563Z,13.03
2023-04-16T12:53:06.100Z,13.08
2023-04-16T12:55:32.514Z,13.11
2023-04-16T12:57:58.970Z,13.09
2023-04-16T13:00:25.500Z,13.15
2023-04-16T13:02:52.546Z,13.38
2023-04-16T13:05:19.569Z,13.33
2023-04-16T13:07:46.145Z,13.15
2023-04-16T13:10:13.376Z,13.39
2023-04-16T13:12:40.856Z,13.56
2023-04-16T13:15:07.793Z,13.38
2023-04-16T13:17:34.222Z,13.36
2023-04-16T13:20:00.665Z,13.27
2023-04-16T13:22:27.196Z,13.25
2023-04-16T13:24:53.686Z,13.36
2023-04-16T13:27:20.510Z,13.32
2023-04-16T13:29:47.126Z,13.20
2023-04-16T13:32:14.799Z,13.29
2023-04-16T13:34:41.209Z,13.23
2023-04-16T13:37:07.558Z,13.30
2023-04-16T13:39:33.944Z,13.21
2023-04-16T13:42:00.470Z,13.13
2023-04-16T13:44:26.956Z,13.14
2023-04-16T13:46:53.416Z,13.04
2023-04-16T13:49:19.903Z,13.12
2023-04-16T13:51:46.398Z,13.02
2023-04-16T13:54:12.996Z,12.94
2023-04-16T13:56:39.814Z,12.95
2023-04-16T13:59:06.429Z,13.24
2023-04-16T14:01:33.117Z,13.17
2023-04-16T14:04:05.941Z,13.24
2023-04-16T14:06:33.057Z,13.22
2023-04-16T14:08:59.480Z,13.08
2023-04-16T14:11:25.900Z,13.07
2023-04-16T14:13:52.590Z,13.14
2023-04-16T14:16:19.285Z,13.14
2023-04-16T14:18:45.796Z,13.28
2023-04-16T14:21:13.503Z,13.31
2023-04-16T14:23:39.851Z,13.29
2023-04-16T14:26:06.307Z,13.24
2023-04-16T14:28:32.793Z,13.11
2023-04-16T14:30:59.171Z,13.23
2023-04-16T14:33:25.838Z,13.46
2023-04-16T14:35:52.340Z,13.46
2023-04-16T14:38:18.801Z,13.42
2023-04-16T14:40:45.183Z,13.46
2023-04-16T14:43:11.590Z,13.41
2023-04-16T14:45:39.178Z,13.38
2023-04-16T14:48:06.321Z,13.19
2023-04-16T14:50:38.794Z,13.26
2023-04-16T14:53:05.656Z,13.13
2023-04-16T14:55:32.648Z,13.03
2023-04-16T14:57:59.759Z,12.87
2023-04-16T15:00:27.563Z,12.86
2023-04-16T15:02:54.887Z,12.80
2023-04-16T15:05:22.051Z,12.69
2023-04-16T15:07:48.848Z,12.79
2023-04-16T15:10:15.496Z,12.62
2023-04-16T15:12:41.982Z,12.50
2023-04-16T15:15:09.074Z,12.76
2023-04-16T15:17:35.690Z,12.94
2023-04-16T15:20:02.630Z,12.96
2023-04-16T15:22:29.022Z,12.88
2023-04-16T15:24:55.538Z,12.85
2023-04-16T15:27:21.921Z,12.97
2023-04-16T15:29:49.636Z,12.78
2023-04-16T15:32:16.184Z,12.69
2023-04-16T15:34:42.705Z,12.54
2023-04-16T15:37:09.643Z,12.38
2023-04-16T15:39:36.032Z,12.41
2023-04-16T15:42:07.198Z,12.40
2023-04-16T15:44:34.634Z,12.39
2023-04-16T15:47:01.064Z,12.39
2023-04-16T15:49:27.508Z,12.25
2023-04-16T15:51:54.068Z,12.19
2023-04-16T15:54:20.466Z,12.07
2023-04-16T15:56:47.044Z,12.04
2023-04-16T15:59:13.731Z,11.87
2023-04-16T16:01:40.477Z,11.83
2023-04-16T16:04:08.193Z,11.77
2023-04-16T16:06:34.967Z,11.64
2023-04-16T16:09:01.868Z,11.54
2023-04-16T16:11:28.390Z,11.57
2023-04-16T16:13:54.877Z,11.46
2023-04-16T16:16:21.889Z,11.39
2023-04-16T16:18:48.580Z,11.32
2023-04-16T16:21:15.102Z,11.26
2023-04-16T16:23:41.575Z,11.26
2023-04-16T16:26:08.103Z,11.24
2023-04-16T16:28:37.515Z,11.10
2023-04-16T16:31:04.492Z,11.13
2023-04-16T16:33:31.298Z,11.09
2023-04-16T16:35:57.742Z,11.06
2023-04-16T16:38:24.514Z,11.05
2023-04-16T16:40:50.975Z,11.00
2023-04-16T16:43:17.597Z,11.04
2023-04-16T16:45:47.061Z,10.94
2023-04-16T16:48:15.060Z,10.91
2023-04-16T16:50:47.384Z,10.89
2023-04-16T16:53:14.150Z,10.83
2023-04-16T16:55:40.752Z,10.83
2023-04-16T16:58:08.782Z,10.78
2023-04-16T17:00:36.466Z,10.74
2023-04-16T17:03:05.488Z,10.63
2023-04-16T17:05:48.271Z,10.67
2023-04-16T17:08:19.721Z,10.61
2023-04-16T17:10:48.263Z,10.57
2023-04-16T17:13:20.747Z,10.51
2023-04-16T17:15:47.850Z,10.48
2023-04-16T17:18:16.051Z,10.53
2023-04-16T17:21:03.799Z,10.51
2023-04-16T17:23:30.684Z,10.47
2023-04-16T17:26:00.061Z,10.53
2023-04-16T17:28:27.012Z,10.46
2023-04-16T17:30:54.278Z,10.43
2023-04-16T17:33:22.296Z,10.44
2023-04-16T17:35:48.687Z,10.34
2023-04-16T17:38:15.170Z,10.43
2023-04-16T17:40:48.321Z,10.36
2023-04-16T17:43:14.848Z,10.31
2023-04-16T17:45:41.348Z,10.35
2023-04-16T17:48:07.949Z,10.21
2023-04-16T17:50:34.437Z,10.29
2023-04-16T17:53:03.824Z,10.24
2023-04-16T17:55:30.653Z,10.13
2023-04-16T17:57:57.341Z,10.08
2023-04-16T18:00:24.125Z,10.05
2023-04-16T18:02:52.478Z,9.91
2023-04-16T18:05:19.735Z,9.97
2023-04-16T18:07:47.244Z,10.03
2023-04-16T18:10:13.783Z,9.90
2023-04-16T18:12:40.479Z,9.93
2023-04-16T18:15:07.569Z,9.89
2023-04-16T18:17:34.154Z,9.87
2023-04-16T18:20:00.594Z,9.85
2023-04-16T18:22:28.719Z,9.80
2023-04-16T18:24:55.577Z,9.84
2023-04-16T18:27:26.732Z,9.83
2023-04-16T18:29:54.874Z,9.88
2023-04-16T18:32:21.818Z,9.83
2023-04-16T18:34:48.644Z,9.79
2023-04-16T18:37:15.090Z,9.74
2023-04-16T18:39:43.803Z,9.71
2023-04-16T18:42:10.720Z,9.77
2023-04-16T18:44:37.417Z,9.62
2023-04-16T18:47:04.212Z,9.72
2023-04-16T18:49:30.790Z,9.66
2023-04-16T18:51:57.153Z,9.72
2023-04-16T18:54:23.510Z,9.67
2023-04-16T18:56:49.914Z,9.68
2023-04-16T18:59:16.543Z,9.64
2023-04-16T19:01:43.218Z,9.68
2023-04-16T19:04:09.830Z,9.59
2023-04-16T19:06:36.293Z,9.52
2023-04-16T19:09:21.580Z,9.46
2023-04-16T19:11:50.954Z,9.52
2023-04-16T19:14:17.873Z,9.48
2023-04-16T19:16:44.622Z,9.44
2023-04-16T19:19:11.327Z,9.44
2023-04-16T19:21:38.557Z,9.40
2023-04-16T19:24:07.722Z,9.37
2023-04-16T19:26:36.511Z,9.38
2023-04-16T19:29:12.469Z,9.46
2023-04-16T19:31:39.340Z,9.47
2023-04-16T19:34:05.915Z,9.42
2023-04-16T19:36:32.720Z,9.48
2023-04-16T19:39:01.861Z,9.43
2023-04-16T19:41:28.371Z,9.41
2023-04-16T19:43:54.957Z,9.27
2023-04-16T19:46:21.424Z,9.25
2023-04-16T19:48:47.909Z,9.28
2023-04-16T19:51:14.943Z,9.22
2023-04-16T19:53:42.526Z,9.19
2023-04-16T19:56:10.781Z,9.18
2023-04-16T19:58:39.341Z,9.14
2023-04-16T20:01:13.731Z,9.14
2023-04-16T20:03:41.289Z,9.17
2023-04-16T20:06:13.835Z,9.15
2023-04-16T20:08:41.749Z,9.14
2023-04-16T20:11:09.579Z,9.19
2023-04-16T20:13:39.137Z,9.18
2023-04-16T20:16:09.328Z,9.20
2023-04-16T20:18:41.597Z,9.28
2023-04-16T20:21:09.164Z,9.40
2023-04-16T20:23:35.751Z,9.30
2023-04-16T20:26:02.838Z,9.27
2023-04-16T20:28:29.252Z,9.26
2023-04-16T20:30:55.704Z,9.22
2023-04-16T20:33:22.206Z,9.26
2023-04-16T20:35:50.752Z,9.25
2023-04-16T20:38:18.356Z,9.24
2023-04-16T20:40:44.995Z,9.27
2023-04-16T20:43:14.340Z,9.24
2023-04-16T20:45:41.017Z,9.15
2023-04-16T20:48:07.838Z,9.25
2023-04-16T20:50:34.335Z,9.19
2023-04-16T20:53:00.893Z,9.26
2023-04-16T20:55:27.501Z,9.15
2023-04-16T20:57:54.158Z,9.19
2023-04-16T21:00:21.094Z,9.18
2023-04-16T21:02:47.891Z,9.16
2023-04-16T21:05:14.857Z,9.07
2023-04-16T21:07:41.979Z,9.16
2023-04-16T21:10:10.602Z,9.14
2023-04-16T21:12:37.241Z,9.03
2023-04-16T21:15:04.598Z,9.00
2023-04-16T21:17:31.583Z,9.02
2023-04-16T21:19:58.089Z,9.02
2023-04-16T21:22:24.847Z,8.95
2023-04-16T21:24:51.336Z,8.97
2023-04-16T21:27:17.773Z,8.96
2023-04-16T21:29:44.116Z,9.08
2023-04-16T21:32:10.717Z,9.14
2023-04-16T21:34:37.399Z,9.06
2023-04-16T21:37:04.160Z,9.07
2023-04-16T21:39:31.225Z,9.08
2023-04-16T21:41:57.981Z,9.00
2023-04-16T21:44:24.349Z,8.91
2023-04-16T21:46:51.253Z,8.89
2023-04-16T21:49:17.680Z,8.87
2023-04-16T21:51:45.992Z,8.90
2023-04-16T21:54:13.163Z,8.96
2023-04-16T21:56:39.574Z,8.90
2023-04-16T21:59:06.068Z,8.94
2023-04-16T22:01:32.516Z,8.87
2023-04-16T22:03:59.346Z,8.85
2023-04-16T22:06:27.174Z,8.92
2023-04-16T22:08:53.891Z,8.87
2023-04-16T22:11:20.825Z,8.87
2023-04-16T22:13:47.518Z,8.81
2023-04-16T22:16:13.990Z,8.85
2023-04-16T22:18:41.303Z,8.83
2023-04-16T22:21:07.714Z,8.85
2023-04-16T22:23:34.118Z,8.83
2023-04-16T22:26:02.723Z,8.91
2023-04-16T22:28:29.551Z,8.89
2023-04-16T22:30:56.379Z,8.79
2023-04-16T22:33:22.826Z,8.85
2023-04-16T22:35:49.179Z,8.82
2023-04-16T22:38:16.582Z,8.75
2023-04-16T22:40:43.078Z,8.75
2023-04-16T22:43:09.444Z,8.89
2023-04-16T22:45:37.429Z,8.80
2023-04-16T22:48:04.088Z,8.81
2023-04-16T22:50:31.965Z,8.78
2023-04-16T22:52:58.491Z,8.81
2023-04-16T22:55:25.423Z,8.80
2023-04-16T22:57:52.093Z,8.78
2023-04-16T23:00:19.327Z,8.75
2023-04-16T23:02:45.824Z,8.75
2023-04-16T23:05:12.291Z,8.63
2023-04-16T23:07:38.895Z,8.70
2023-04-16T23:10:05.792Z,8.75
2023-04-16T23:12:32.167Z,8.70
2023-04-16T23:15:00.349Z,8.65
2023-04-16T23:17:27.093Z,8.64
2023-04-16T23:19:53.558Z,8.69
2023-04-16T23:22:19.910Z,8.70
2023-04-16T23:24:46.333Z,8.64
2023-04-16T23:27:12.698Z,8.63
2023-04-16T23:29:39.158Z,8.62
2023-04-16T23:32:05.552Z,8.59
2023-04-16T23:34:32.002Z,8.58
2023-04-16T23:36:58.443Z,8.62
2023-04-16T23:39:24.876Z,8.62
2023-04-16T23:41:51.545Z,8.66
2023-04-16T23:44:18.210Z,8.67
2023-04-16T23:46:44.742Z,8.66
2023-04-16T23:49:11.415Z,8.62
2023-04-16T23:51:38.024Z,8.69
2023-04-16T23:54:04.586Z,8.52
2023-04-16T23:56:31.404Z,8.55
2023-04-16T23:58:57.737Z,8.50
